Time;durP1;ratioP1;P1;durP2;ratioP2;P2;SDS_P1;SDS_P2;PMS_P1;PMS_P2;Temp;Humidity;BMP_temperature;BMP_pressure;BME280_temperature;BME280_humidity;BME280_pressure;Samples;Min_cycle;Max_cycle;Signal;HPM_P1;HPM_P2
2021/12/26 00:01:00;;;;;;;21.02;10.45;;;;;;;;;;5072082;28;20059;-66
2021/12/26 00:03:28;;;;;;;19.15;9.77;;;;;;;;;;5071950;28;20035;-66
2021/12/26 00:05:54;;;;;;;21.90;11.00;;;;;;;;;;5070664;28;20029;-65
2021/12/26 00:08:20;;;;;;;16.95;8.85;;;;;;;;;;5071793;28;20017;-66
2021/12/26 00:10:48;;;;;;;17.90;8.23;;;;;;;;;;5071740;28;20035;-67
2021/12/26 00:13:14;;;;;;;15.85;8.65;;;;;;;;;;5071398;28;20359;-66
2021/12/26 00:15:40;;;;;;;19.65;8.57;;;;;;;;;;5070091;28;20115;-67
2021/12/26 00:18:07;;;;;;;18.08;8.20;;;;;;;;;;5070486;28;20110;-66
2021/12/26 00:20:33;;;;;;;19.30;8.88;;;;;;;;;;5071758;28;20082;-65
2021/12/26 00:22:59;;;;;;;17.45;8.20;;;;;;;;;;5069587;28;20020;-65
2021/12/26 00:25:25;;;;;;;15.43;7.18;;;;;;;;;;5072044;28;20038;-65
2021/12/26 00:27:51;;;;;;;22.23;8.95;;;;;;;;;;5071663;28;20033;-65
2021/12/26 00:30:18;;;;;;;18.92;7.20;;;;;;;;;;5071666;28;20067;-65
2021/12/26 00:32:45;;;;;;;19.95;8.27;;;;;;;;;;5071047;28;20028;-65
2021/12/26 00:35:12;;;;;;;20.40;9.88;;;;;;;;;;5070097;28;20082;-65
2021/12/26 00:37:38;;;;;;;20.73;9.13;;;;;;;;;;5070005;28;20555;-66
2021/12/26 00:40:05;;;;;;;17.98;8.77;;;;;;;;;;5071695;28;20036;-66
2021/12/26 00:42:31;;;;;;;20.70;9.20;;;;;;;;;;5070563;28;20063;-66
2021/12/26 00:44:57;;;;;;;15.75;7.35;;;;;;;;;;5070810;28;20067;-66
2021/12/26 00:47:23;;;;;;;18.33;8.65;;;;;;;;;;5071807;28;20542;-66
2021/12/26 00:49:49;;;;;;;19.17;8.70;;;;;;;;;;5071567;28;20027;-66
2021/12/26 00:52:15;;;;;;;18.00;8.80;;;;;;;;;;5062946;28;20394;-66
2021/12/26 00:54:41;;;;;;;15.65;7.82;;;;;;;;;;5070629;28;20068;-66
2021/12/26 00:57:07;;;;;;;14.27;7.13;;;;;;;;;;5069311;28;20028;-67
2021/12/26 00:59:33;;;;;;;17.67;8.38;;;;;;;;;;5068814;28;20052;-66
2021/12/26 01:01:59;;;;;;;16.88;7.32;;;;;;;;;;5071278;28;20032;-66
2021/12/26 01:04:25;;;;;;;18.25;7.15;;;;;;;;;;5070334;28;20508;-66
2021/12/26 01:06:52;;;;;;;16.15;7.90;;;;;;;;;;5070999;28;20029;-66
2021/12/26 01:09:23;;;;;;;13.95;6.57;;;;;;;;;;5071837;28;20410;-66
2021/12/26 01:11:53;;;;;;;19.20;7.55;;;;;;;;;;5071465;28;20104;-66
2021/12/26 01:14:25;;;;;;;10.85;5.28;;;;;;;;;;5070887;28;20025;-66
2021/12/26 01:17:01;;;;;;;16.60;6.95;;;;;;;;;;5071486;28;20120;-66
2021/12/26 01:19:33;;;;;;;14.63;6.33;;;;;;;;;;5071272;28;20025;-66
2021/12/26 01:21:59;;;;;;;16.33;7.78;;;;;;;;;;5054060;28;20032;-66
2021/12/26 01:24:25;;;;;;;15.97;8.33;;;;;;;;;;5070333;28;20024;-65
2021/12/26 01:26:51;;;;;;;19.42;8.45;;;;;;;;;;5071038;28;20584;-66
2021/12/26 01:29:17;;;;;;;18.73;7.88;;;;;;;;;;5071203;28;20048;-66
2021/12/26 01:31:43;;;;;;;18.30;9.27;;;;;;;;;;5070962;28;20021;-66
2021/12/26 01:34:09;;;;;;;21.93;10.30;;;;;;;;;;5070326;28;20025;-66
2021/12/26 01:36:35;;;;;;;19.20;8.20;;;;;;;;;;5070677;28;20032;-66
2021/12/26 01:39:02;;;;;;;19.20;8.97;;;;;;;;;;5070740;28;20025;-66
2021/12/26 01:41:29;;;;;;;16.65;8.55;;;;;;;;;;5070949;28;20129;-66
2021/12/26 01:43:58;;;;;;;20.17;9.47;;;;;;;;;;5068502;28;20032;-67
2021/12/26 01:46:25;;;;;;;18.75;9.27;;;;;;;;;;5070749;28;20474;-66
2021/12/26 01:49:02;;;;;;;26.83;10.85;;;;;;;;;;5068269;28;20028;-66
2021/12/26 01:51:28;;;;;;;26.60;10.88;;;;;;;;;;5070945;28;20020;-66
2021/12/26 01:53:54;;;;;;;23.02;10.15;;;;;;;;;;5069314;28;20484;-66
2021/12/26 01:56:20;;;;;;;19.65;10.55;;;;;;;;;;5074565;28;20104;-66
2021/12/26 01:58:46;;;;;;;24.35;11.40;;;;;;;;;;5074116;28;20111;-66
2021/12/26 02:01:13;;;;;;;21.05;9.10;;;;;;;;;;5074546;28;20082;-66
2021/12/26 02:03:40;;;;;;;20.38;9.35;;;;;;;;;;5073710;28;20037;-66
2021/12/26 02:06:06;;;;;;;20.75;9.88;;;;;;;;;;5074790;28;20016;-66
2021/12/26 02:08:32;;;;;;;21.42;10.13;;;;;;;;;;5074194;28;20095;-66
2021/12/26 02:11:02;;;;;;;21.65;10.85;;;;;;;;;;5073962;28;20544;-66
2021/12/26 02:13:29;;;;;;;11.23;6.45;;;;;;;;;;5073249;28;20029;-66
2021/12/26 02:15:55;;;;;;;19.80;9.38;;;;;;;;;;5074136;28;20074;-66
2021/12/26 02:18:21;;;;;;;20.55;9.10;;;;;;;;;;5074236;28;20390;-66
2021/12/26 02:28:25;;;;;;;25.17;9.30;;;;;;;;;;5074163;28;20024;-66
2021/12/26 02:30:52;;;;;;;23.63;8.40;;;;;;;;;;5073673;28;20089;-66
2021/12/26 02:33:18;;;;;;;17.40;7.72;;;;;;;;;;5072968;28;20474;-66
2021/12/26 02:35:45;;;;;;;23.97;8.77;;;;;;;;;;5073710;28;20077;-66
2021/12/26 02:38:11;;;;;;;23.23;9.63;;;;;;;;;;5073633;28;20016;-66
2021/12/26 02:40:38;;;;;;;15.98;7.90;;;;;;;;;;5073104;28;20021;-66
2021/12/26 02:43:05;;;;;;;21.27;8.23;;;;;;;;;;5072920;28;20389;-66
2021/12/26 02:45:31;;;;;;;17.67;7.93;;;;;;;;;;5073663;28;20115;-66
2021/12/26 02:47:57;;;;;;;20.73;9.40;;;;;;;;;;5073766;28;20607;-66
2021/12/26 02:50:28;;;;;;;21.03;7.93;;;;;;;;;;5073544;28;20334;-65
2021/12/26 02:52:54;;;;;;;14.10;6.70;;;;;;;;;;5064513;28;20025;-65
2021/12/26 02:55:21;;;;;;;17.80;9.00;;;;;;;;;;5073072;28;20044;-65
2021/12/26 02:57:49;;;;;;;17.15;8.13;;;;;;;;;;5073390;28;20040;-65
2021/12/26 03:00:17;;;;;;;25.15;10.48;;;;;;;;;;5073436;28;20067;-66
2021/12/26 03:02:44;;;;;;;21.50;8.98;;;;;;;;;;5072832;28;20029;-65
2021/12/26 03:05:11;;;;;;;17.80;8.55;;;;;;;;;;5072212;28;20397;-65
2021/12/26 03:07:37;;;;;;;23.13;9.67;;;;;;;;;;5072971;28;20106;-65
2021/12/26 03:10:04;;;;;;;24.30;9.63;;;;;;;;;;5072006;28;20439;-65
2021/12/26 03:12:32;;;;;;;21.50;8.77;;;;;;;;;;5073143;28;20108;-65
2021/12/26 03:14:58;;;;;;;19.73;8.57;;;;;;;;;;5072174;28;20032;-66
2021/12/26 03:17:24;;;;;;;15.63;7.80;;;;;;;;;;5072853;28;20033;-65
2021/12/26 03:19:50;;;;;;;22.10;8.60;;;;;;;;;;5072807;28;20040;-65
2021/12/26 03:22:16;;;;;;;18.98;8.70;;;;;;;;;;5072561;28;20100;-65
2021/12/26 03:24:45;;;;;;;19.25;8.80;;;;;;;;;;5071713;28;20052;-65
2021/12/26 03:27:12;;;;;;;27.33;9.23;;;;;;;;;;5072662;28;20028;-65
2021/12/26 03:29:38;;;;;;;17.38;8.60;;;;;;;;;;5072704;28;20079;-64
2021/12/26 03:32:04;;;;;;;21.65;9.93;;;;;;;;;;5072643;28;20470;-65
2021/12/26 03:34:31;;;;;;;17.80;8.40;;;;;;;;;;5071816;28;20028;-65
2021/12/26 03:36:57;;;;;;;22.52;9.95;;;;;;;;;;5070991;28;20494;-64
2021/12/26 03:39:23;;;;;;;19.90;8.95;;;;;;;;;;5071258;28;20386;-65
2021/12/26 03:41:50;;;;;;;22.90;9.27;;;;;;;;;;5072378;28;20062;-64
2021/12/26 03:44:16;;;;;;;19.05;9.10;;;;;;;;;;5071652;28;20029;-65
2021/12/26 03:46:43;;;;;;;26.10;10.13;;;;;;;;;;5072249;28;20024;-65
2021/12/26 03:49:09;;;;;;;22.40;9.90;;;;;;;;;;5066177;28;20017;-65
2021/12/26 03:51:35;;;;;;;19.80;9.80;;;;;;;;;;5071878;28;20032;-65
2021/12/26 03:54:06;;;;;;;22.45;9.18;;;;;;;;;;5071345;28;20060;-65
2021/12/26 03:56:33;;;;;;;27.60;9.75;;;;;;;;;;5070883;28;20032;-65
2021/12/26 03:58:59;;;;;;;18.30;8.98;;;;;;;;;;5072315;28;20025;-65
2021/12/26 04:01:28;;;;;;;19.52;9.85;;;;;;;;;;5071849;28;20039;-65
2021/12/26 04:03:54;;;;;;;24.23;10.30;;;;;;;;;;5071185;28;20082;-64
2021/12/26 04:06:20;;;;;;;16.30;8.52;;;;;;;;;;5072148;28;20467;-65
2021/12/26 04:08:46;;;;;;;20.43;9.20;;;;;;;;;;5071899;28;20020;-65
2021/12/26 04:11:12;;;;;;;23.27;9.87;;;;;;;;;;5071934;28;20025;-65
2021/12/26 04:13:38;;;;;;;23.93;9.97;;;;;;;;;;5069763;28;20379;-67
2021/12/26 04:16:04;;;;;;;22.27;9.77;;;;;;;;;;5071800;28;20498;-65
2021/12/26 04:18:30;;;;;;;23.87;10.10;;;;;;;;;;5071368;28;20513;-65
2021/12/26 04:20:56;;;;;;;20.40;8.73;;;;;;;;;;5071617;28;20561;-65
2021/12/26 04:23:22;;;;;;;19.27;9.30;;;;;;;;;;5070783;28;20025;-65
2021/12/26 04:25:48;;;;;;;19.80;9.10;;;;;;;;;;5071594;28;20027;-65
2021/12/26 04:28:17;;;;;;;28.10;10.00;;;;;;;;;;5070231;28;20094;-66
2021/12/26 04:30:43;;;;;;;18.63;8.27;;;;;;;;;;5071288;28;20020;-65
2021/12/26 04:33:09;;;;;;;20.92;9.13;;;;;;;;;;5070511;28;20104;-65
2021/12/26 04:35:35;;;;;;;19.00;8.43;;;;;;;;;;5071370;28;20589;-65
2021/12/26 04:38:01;;;;;;;21.73;8.80;;;;;;;;;;5072404;28;20363;-65
2021/12/26 04:40:28;;;;;;;19.10;8.20;;;;;;;;;;5070028;28;20052;-65
2021/12/26 04:42:54;;;;;;;18.07;8.27;;;;;;;;;;5071028;28;20029;-65
2021/12/26 04:45:20;;;;;;;21.23;8.70;;;;;;;;;;5071203;28;20032;-65
2021/12/26 04:47:49;;;;;;;20.63;8.90;;;;;;;;;;5071120;28;20012;-65
2021/12/26 04:50:16;;;;;;;21.03;8.13;;;;;;;;;;5071316;28;20028;-65
2021/12/26 04:52:44;;;;;;;18.10;8.33;;;;;;;;;;5064025;28;20017;-65
2021/12/26 04:55:11;;;;;;;19.87;8.70;;;;;;;;;;5072278;28;20115;-65
2021/12/26 04:57:37;;;;;;;21.43;9.03;;;;;;;;;;5062232;28;20559;-65
2021/12/26 05:00:10;;;;;;;17.03;7.67;;;;;;;;;;5066692;28;20484;-65
2021/12/26 05:02:38;;;;;;;19.93;8.40;;;;;;;;;;5068139;28;20482;-65
2021/12/26 05:05:05;;;;;;;19.05;7.95;;;;;;;;;;5069091;28;20024;-65
2021/12/26 05:07:31;;;;;;;17.70;7.87;;;;;;;;;;5067180;28;20029;-66
2021/12/26 05:09:58;;;;;;;17.85;7.88;;;;;;;;;;5069373;28;20025;-65
2021/12/26 05:12:24;;;;;;;19.43;8.47;;;;;;;;;;5070924;28;20017;-65
2021/12/26 05:14:50;;;;;;;20.03;8.73;;;;;;;;;;5067345;28;20060;-65
2021/12/26 05:17:16;;;;;;;21.87;8.57;;;;;;;;;;5070840;28;20425;-65
2021/12/26 05:19:42;;;;;;;18.53;7.83;;;;;;;;;;5071142;28;20051;-65
2021/12/26 05:22:08;;;;;;;21.40;8.83;;;;;;;;;;5071044;28;20481;-65
2021/12/26 05:24:34;;;;;;;22.03;8.73;;;;;;;;;;5069946;28;20032;-65
2021/12/26 05:27:00;;;;;;;16.00;7.40;;;;;;;;;;5070866;28;20394;-65
2021/12/26 05:29:26;;;;;;;25.97;8.23;;;;;;;;;;5072662;28;20029;-65
2021/12/26 05:31:53;;;;;;;16.43;7.30;;;;;;;;;;5074672;28;20095;-65
2021/12/26 05:34:19;;;;;;;18.70;7.83;;;;;;;;;;5074019;28;20370;-65
2021/12/26 05:36:45;;;;;;;22.50;8.20;;;;;;;;;;5074545;28;20040;-65
2021/12/26 05:39:11;;;;;;;15.97;8.00;;;;;;;;;;5074715;28;20074;-65
2021/12/26 05:41:38;;;;;;;19.47;8.50;;;;;;;;;;5074412;28;20021;-65
2021/12/26 05:44:05;;;;;;;16.70;7.13;;;;;;;;;;5072376;28;20024;-65
2021/12/26 05:46:31;;;;;;;19.77;7.30;;;;;;;;;;5074540;28;20016;-65
2021/12/26 05:48:59;;;;;;;15.80;7.60;;;;;;;;;;5074388;28;20055;-65
2021/12/26 05:51:25;;;;;;;24.57;9.40;;;;;;;;;;5068594;28;20099;-66
2021/12/26 05:53:51;;;;;;;16.07;7.53;;;;;;;;;;5072397;28;20094;-66
2021/12/26 05:56:17;;;;;;;18.57;7.53;;;;;;;;;;5074264;28;20543;-66
2021/12/26 05:58:43;;;;;;;14.17;6.90;;;;;;;;;;5072749;28;20047;-66
2021/12/26 06:01:09;;;;;;;20.43;7.67;;;;;;;;;;5074302;28;20035;-66
2021/12/26 06:03:35;;;;;;;17.60;8.67;;;;;;;;;;5073319;28;20037;-65
2021/12/26 06:06:01;;;;;;;17.87;7.53;;;;;;;;;;5074292;28;20016;-65
2021/12/26 06:08:27;;;;;;;21.57;8.07;;;;;;;;;;5074283;28;20385;-65
2021/12/26 06:10:53;;;;;;;16.40;7.53;;;;;;;;;;5073815;28;20085;-64
2021/12/26 06:13:19;;;;;;;16.00;6.83;;;;;;;;;;5070231;28;20086;-64
2021/12/26 06:15:45;;;;;;;18.47;8.50;;;;;;;;;;5072628;28;20055;-65
2021/12/26 06:18:11;;;;;;;16.83;6.77;;;;;;;;;;5072745;28;20023;-65
2021/12/26 06:20:37;;;;;;;18.77;8.07;;;;;;;;;;5072538;28;20021;-65
2021/12/26 06:23:03;;;;;;;17.00;7.80;;;;;;;;;;5072987;28;20031;-65
2021/12/26 06:25:29;;;;;;;16.33;7.23;;;;;;;;;;5073623;28;20033;-65
2021/12/26 06:27:55;;;;;;;15.03;6.90;;;;;;;;;;5072136;28;20399;-65
2021/12/26 06:30:21;;;;;;;17.80;7.47;;;;;;;;;;5073764;28;20028;-65
2021/12/26 06:32:47;;;;;;;15.47;7.83;;;;;;;;;;5072937;28;20028;-65
2021/12/26 06:35:13;;;;;;;15.53;7.90;;;;;;;;;;5072187;28;20029;-65
2021/12/26 06:37:39;;;;;;;25.50;8.70;;;;;;;;;;5073596;28;20040;-65
2021/12/26 06:40:06;;;;;;;17.60;7.17;;;;;;;;;;5073166;28;20115;-65
2021/12/26 06:42:35;;;;;;;19.07;7.83;;;;;;;;;;5073332;28;20028;-65
2021/12/26 06:45:01;;;;;;;19.47;8.30;;;;;;;;;;5073177;28;20112;-65
2021/12/26 06:47:27;;;;;;;16.02;7.65;;;;;;;;;;5073900;28;20078;-65
2021/12/26 06:49:53;;;;;;;19.10;7.82;;;;;;;;;;5073519;28;20025;-66
2021/12/26 06:52:19;;;;;;;18.67;7.78;;;;;;;;;;5073519;28;20021;-66
2021/12/26 06:54:45;;;;;;;18.63;7.88;;;;;;;;;;5070679;28;20036;-66
2021/12/26 06:57:11;;;;;;;18.13;7.97;;;;;;;;;;5073322;28;20031;-66
2021/12/26 06:59:37;;;;;;;20.50;9.13;;;;;;;;;;5073196;28;20032;-66
2021/12/26 07:02:03;;;;;;;21.63;7.73;;;;;;;;;;5073369;28;20021;-66
2021/12/26 07:04:35;;;;;;;19.42;8.25;;;;;;;;;;5072385;28;20028;-66
2021/12/26 07:07:01;;;;;;;18.47;7.30;;;;;;;;;;5070516;28;20024;-66
2021/12/26 07:09:27;;;;;;;21.70;8.27;;;;;;;;;;5057626;28;20052;-65
2021/12/26 07:11:53;;;;;;;22.30;7.82;;;;;;;;;;5070523;28;20443;-66
2021/12/26 07:14:19;;;;;;;19.40;7.83;;;;;;;;;;5072869;28;20498;-66
2021/12/26 07:16:45;;;;;;;16.20;9.02;;;;;;;;;;5073398;28;20040;-66
2021/12/26 07:19:11;;;;;;;19.88;8.55;;;;;;;;;;5073298;28;20340;-66
2021/12/26 07:21:37;;;;;;;21.52;8.32;;;;;;;;;;5073464;28;20028;-66
2021/12/26 07:24:04;;;;;;;19.40;8.80;;;;;;;;;;5072526;28;20103;-66
2021/12/26 07:26:30;;;;;;;21.42;8.73;;;;;;;;;;5073303;28;20017;-66
2021/12/26 07:28:56;;;;;;;19.60;8.90;;;;;;;;;;5072673;28;20094;-66
2021/12/26 07:31:22;;;;;;;21.40;9.35;;;;;;;;;;5071257;28;20021;-67
2021/12/26 07:33:48;;;;;;;23.65;8.35;;;;;;;;;;5071659;28;20024;-67
2021/12/26 07:36:14;;;;;;;18.13;8.35;;;;;;;;;;5072345;28;20036;-66
2021/12/26 07:38:40;;;;;;;17.60;8.55;;;;;;;;;;5071918;28;20047;-66
2021/12/26 07:41:06;;;;;;;19.67;8.90;;;;;;;;;;5072290;28;20032;-67
2021/12/26 07:43:32;;;;;;;18.88;7.93;;;;;;;;;;5070006;28;20032;-67
2021/12/26 07:45:58;;;;;;;18.55;8.23;;;;;;;;;;5072023;28;20035;-67
2021/12/26 07:48:24;;;;;;;18.45;8.70;;;;;;;;;;5072164;28;20477;-67
2021/12/26 07:50:49;;;;;;;19.08;8.38;;;;;;;;;;5069757;28;20028;-67
2021/12/26 07:53:15;;;;;;;21.40;9.40;;;;;;;;;;5064686;28;20107;-67
2021/12/26 07:55:41;;;;;;;21.70;8.20;;;;;;;;;;5070655;28;20020;-67
2021/12/26 07:58:07;;;;;;;20.55;8.10;;;;;;;;;;5072193;28;20465;-67
2021/12/26 08:00:34;;;;;;;20.42;8.35;;;;;;;;;;5071685;28;20062;-67
2021/12/26 08:03:00;;;;;;;15.80;7.22;;;;;;;;;;5071001;28;20107;-68
2021/12/26 08:05:27;;;;;;;16.27;7.05;;;;;;;;;;5071798;28;20029;-67
2021/12/26 08:07:54;;;;;;;19.55;8.15;;;;;;;;;;5071875;28;20024;-67
2021/12/26 08:10:20;;;;;;;16.88;7.18;;;;;;;;;;5072118;28;20090;-68
2021/12/26 08:12:46;;;;;;;19.00;8.55;;;;;;;;;;5070965;28;20032;-68
2021/12/26 08:15:12;;;;;;;20.23;8.23;;;;;;;;;;5071573;28;20028;-67
2021/12/26 08:17:40;;;;;;;18.45;9.02;;;;;;;;;;5071528;28;20037;-67
2021/12/26 08:20:06;;;;;;;17.48;7.88;;;;;;;;;;5071715;28;20020;-68
2021/12/26 08:22:32;;;;;;;22.65;9.73;;;;;;;;;;5071618;28;20031;-67
2021/12/26 08:24:58;;;;;;;14.38;7.50;;;;;;;;;;5070733;28;20124;-67
2021/12/26 08:27:24;;;;;;;18.00;9.27;;;;;;;;;;5071329;28;20101;-67
2021/12/26 08:29:50;;;;;;;22.83;8.80;;;;;;;;;;5071223;28;20020;-67
2021/12/26 08:32:18;;;;;;;17.02;7.60;;;;;;;;;;5071713;28;20417;-67
2021/12/26 08:34:45;;;;;;;18.60;8.05;;;;;;;;;;5070643;28;20032;-67
2021/12/26 08:37:11;;;;;;;22.67;8.63;;;;;;;;;;5071660;28;20035;-67
2021/12/26 08:39:38;;;;;;;22.52;9.50;;;;;;;;;;5071648;28;20028;-67
2021/12/26 08:42:05;;;;;;;20.80;8.63;;;;;;;;;;5071659;28;20032;-67
2021/12/26 08:44:32;;;;;;;18.27;8.50;;;;;;;;;;5070407;28;20020;-67
2021/12/26 08:46:58;;;;;;;18.90;8.10;;;;;;;;;;5069716;28;20035;-67
2021/12/26 08:49:24;;;;;;;17.40;7.35;;;;;;;;;;5071330;28;20074;-67
2021/12/26 08:51:50;;;;;;;21.40;8.98;;;;;;;;;;5071214;28;20028;-67
2021/12/26 08:54:16;;;;;;;19.58;8.05;;;;;;;;;;5070308;28;20127;-67
2021/12/26 08:56:43;;;;;;;19.63;7.53;;;;;;;;;;5070895;28;20100;-67
2021/12/26 08:59:09;;;;;;;17.60;7.38;;;;;;;;;;5049992;28;20060;-67
2021/12/26 09:01:35;;;;;;;19.10;8.18;;;;;;;;;;5067508;28;20131;-66
2021/12/26 09:04:01;;;;;;;17.15;8.85;;;;;;;;;;5069287;28;20035;-66
2021/12/26 09:06:27;;;;;;;19.75;7.38;;;;;;;;;;5071331;28;20446;-66
2021/12/26 09:08:53;;;;;;;15.98;8.05;;;;;;;;;;5068297;28;20029;-66
2021/12/26 09:11:19;;;;;;;17.85;7.88;;;;;;;;;;5065394;28;20090;-67
2021/12/26 09:13:46;;;;;;;14.32;7.97;;;;;;;;;;5069990;28;20036;-67
2021/12/26 09:16:12;;;;;;;17.15;7.75;;;;;;;;;;5070755;28;20033;-67
2021/12/26 09:18:38;;;;;;;16.08;7.38;;;;;;;;;;5070913;28;20483;-67
2021/12/26 09:21:04;;;;;;;16.20;7.05;;;;;;;;;;5071019;28;20179;-67
2021/12/26 09:23:30;;;;;;;13.82;6.68;;;;;;;;;;5070101;28;20082;-67
2021/12/26 09:25:56;;;;;;;14.68;6.95;;;;;;;;;;5071178;28;20055;-67
2021/12/26 09:28:22;;;;;;;13.50;6.47;;;;;;;;;;5070734;28;20100;-67
2021/12/26 09:30:48;;;;;;;11.98;6.15;;;;;;;;;;5070394;28;20494;-66
2021/12/26 09:33:19;;;;;;;15.00;7.18;;;;;;;;;;5070239;28;20031;-68
2021/12/26 09:35:46;;;;;;;13.43;6.60;;;;;;;;;;5070822;28;20113;-66
2021/12/26 09:38:12;;;;;;;15.20;6.78;;;;;;;;;;5069445;28;20025;-67
2021/12/26 09:40:39;;;;;;;14.45;7.10;;;;;;;;;;5070625;28;20054;-66
2021/12/26 09:43:05;;;;;;;13.23;6.03;;;;;;;;;;5069637;28;20500;-66
2021/12/26 09:45:31;;;;;;;16.00;6.43;;;;;;;;;;5070635;28;20569;-67
2021/12/26 09:47:56;;;;;;;13.05;6.50;;;;;;;;;;5069222;28;20048;-67
2021/12/26 09:50:23;;;;;;;13.57;7.80;;;;;;;;;;5069205;28;20012;-66
2021/12/26 09:52:49;;;;;;;17.10;7.25;;;;;;;;;;5069815;28;20032;-66
2021/12/26 09:55:16;;;;;;;14.52;6.70;;;;;;;;;;5070232;28;20094;-67
2021/12/26 09:57:42;;;;;;;17.70;8.00;;;;;;;;;;5070057;28;20032;-72
2021/12/26 10:00:27;;;;;;;16.23;7.07;;;;;;;;;;5070619;28;20028;-70
2021/12/26 10:03:08;;;;;;;13.23;6.78;;;;;;;;;;5069132;28;20029;-70
2021/12/26 10:05:34;;;;;;;;;;;;;;;;;;5070783;28;20036;-71
2021/12/26 10:08:06;;;;;;;16.13;6.55;;;;;;;;;;5070078;28;20439;-70
2021/12/26 10:10:32;;;;;;;15.98;7.10;;;;;;;;;;5070137;28;20020;-71
2021/12/26 10:12:58;;;;;;;16.85;7.82;;;;;;;;;;5069402;28;20432;-70
2021/12/26 10:15:44;;;;;;;15.90;6.80;;;;;;;;;;5069951;28;20103;-71
2021/12/26 10:18:29;;;;;;;17.50;7.32;;;;;;;;;;5058229;28;20029;-69
2021/12/26 10:20:55;;;;;;;16.63;7.53;;;;;;;;;;5073455;28;20367;-68
2021/12/26 10:23:25;;;;;;;17.08;7.38;;;;;;;;;;5072124;28;20104;-67
2021/12/26 10:25:51;;;;;;;18.00;7.60;;;;;;;;;;5072848;28;20033;-69
2021/12/26 10:28:17;;;;;;;19.73;7.88;;;;;;;;;;5073444;28;20020;-69
2021/12/26 10:30:44;;;;;;;14.02;6.88;;;;;;;;;;5070893;28;20327;-68
2021/12/26 10:33:09;;;;;;;16.38;7.70;;;;;;;;;;5071831;28;20447;-67
2021/12/26 10:35:36;;;;;;;15.48;7.00;;;;;;;;;;5070820;28;20029;-68
2021/12/26 10:38:01;;;;;;;15.90;6.57;;;;;;;;;;5073690;28;20029;-68
2021/12/26 10:40:31;;;;;;;14.52;6.72;;;;;;;;;;5072514;28;20173;-67
2021/12/26 10:42:58;;;;;;;15.82;7.50;;;;;;;;;;5073347;28;20333;-67
2021/12/26 10:45:26;;;;;;;14.43;6.95;;;;;;;;;;5071156;28;20036;-67
2021/12/26 10:47:54;;;;;;;25.60;8.77;;;;;;;;;;5073365;28;20021;-67
2021/12/26 10:50:22;;;;;;;15.55;6.28;;;;;;;;;;5072202;28;20486;-66
2021/12/26 10:53:07;;;;;;;14.18;7.05;;;;;;;;;;5072750;28;20047;-68
2021/12/26 10:55:33;;;;;;;13.90;6.80;;;;;;;;;;5062671;22;20554;-68
2021/12/26 10:58:06;;;;;;;13.07;5.88;;;;;;;;;;5033308;28;20132;-69
2021/12/26 11:00:34;;;;;;;15.10;6.93;;;;;;;;;;5033749;28;20040;-70
2021/12/26 11:03:02;;;;;;;13.48;5.88;;;;;;;;;;5033163;28;20456;-69
2021/12/26 11:05:37;;;;;;;12.32;5.75;;;;;;;;;;5033942;28;20025;-69
2021/12/26 11:08:05;;;;;;;14.05;6.35;;;;;;;;;;5034498;28;20122;-69
2021/12/26 11:10:32;;;;;;;13.73;6.72;;;;;;;;;;5023370;28;20490;-69
2021/12/26 11:12:59;;;;;;;13.20;6.38;;;;;;;;;;5013453;28;20062;-69
2021/12/26 11:15:36;;;;;;;13.20;5.38;;;;;;;;;;5017189;28;20030;-69
2021/12/26 11:18:06;;;;;;;10.27;4.97;;;;;;;;;;5028083;28;20426;-67
2021/12/26 11:20:37;;;;;;;10.43;5.32;;;;;;;;;;5031015;28;20037;-67
2021/12/26 11:23:09;;;;;;;;;;;;;;;;;;5028576;28;20034;-67
2021/12/26 11:25:35;;;;;;;12.93;6.13;;;;;;;;;;5013321;28;19909;-67
2021/12/26 11:28:01;;;;;;;12.98;5.35;;;;;;;;;;5012606;28;20415;-67
2021/12/26 11:30:27;;;;;;;10.82;4.40;;;;;;;;;;5013276;28;20030;-67
2021/12/26 11:32:53;;;;;;;7.85;4.40;;;;;;;;;;5027543;28;20041;-67
2021/12/26 11:35:20;;;;;;;9.30;4.32;;;;;;;;;;5012673;28;20026;-67
2021/12/26 11:37:48;;;;;;;9.13;4.97;;;;;;;;;;5013041;28;20044;-67
2021/12/26 11:40:15;;;;;;;9.95;4.15;;;;;;;;;;5011741;28;20171;-67
2021/12/26 11:42:48;;;;;;;11.27;4.75;;;;;;;;;;5012726;28;20026;-67
2021/12/26 11:45:24;;;;;;;8.60;3.72;;;;;;;;;;5012729;28;20033;-67
2021/12/26 11:48:20;;;;;;;12.00;5.03;;;;;;;;;;5012831;28;20025;-68
2021/12/26 11:50:55;;;;;;;6.85;3.63;;;;;;;;;;5013347;28;20026;-68
2021/12/26 11:53:21;;;;;;;11.15;4.90;;;;;;;;;;5012600;28;20034;-68
2021/12/26 11:55:50;;;;;;;10.65;4.70;;;;;;;;;;5013250;28;20060;-68
2021/12/26 11:58:28;;;;;;;9.05;3.85;;;;;;;;;;5013374;28;20030;-68
2021/12/26 12:00:55;;;;;;;8.07;3.80;;;;;;;;;;5013391;28;20030;-69
2021/12/26 12:03:22;;;;;;;11.18;5.30;;;;;;;;;;5011672;28;20033;-68
2021/12/26 12:05:48;;;;;;;7.55;3.80;;;;;;;;;;5021112;28;20478;-69
2021/12/26 12:08:16;;;;;;;9.07;4.13;;;;;;;;;;5040911;28;20056;-70
2021/12/26 12:10:56;;;;;;;10.35;4.07;;;;;;;;;;5031792;28;20052;-69
2021/12/26 12:13:22;;;;;;;11.40;4.90;;;;;;;;;;5033721;28;20022;-70
2021/12/26 12:15:51;;;;;;;9.00;4.07;;;;;;;;;;5027887;28;20033;-70
2021/12/26 12:18:24;;;;;;;8.55;4.55;;;;;;;;;;5032041;28;20033;-70
2021/12/26 12:21:08;;;;;;;9.90;4.32;;;;;;;;;;5031756;28;20517;-69
2021/12/26 12:23:35;;;;;;;8.50;3.60;;;;;;;;;;5025045;28;20454;-69
2021/12/26 12:26:01;;;;;;;8.93;4.07;;;;;;;;;;5031978;28;20049;-68
2021/12/26 12:28:31;;;;;;;7.93;3.80;;;;;;;;;;5032124;28;20025;-69
2021/12/26 12:31:14;;;;;;;9.43;3.90;;;;;;;;;;5030739;28;20025;-69
2021/12/26 12:33:40;;;;;;;11.32;3.92;;;;;;;;;;5029448;28;20031;-69
2021/12/26 12:36:25;;;;;;;10.35;5.05;;;;;;;;;;5031809;28;20025;-69
2021/12/26 12:38:51;;;;;;;8.30;4.13;;;;;;;;;;5031565;28;20045;-68
2021/12/26 12:41:30;;;;;;;9.55;4.30;;;;;;;;;;5031704;28;20022;-68
2021/12/26 12:43:57;;;;;;;8.82;3.55;;;;;;;;;;5030429;28;20112;-68
2021/12/26 12:46:23;;;;;;;8.85;4.35;;;;;;;;;;5030296;28;20052;-69
2021/12/26 12:49:06;;;;;;;7.75;3.75;;;;;;;;;;5031611;28;20456;-70
2021/12/26 12:51:32;;;;;;;11.32;4.50;;;;;;;;;;5031417;28;20031;-69
2021/12/26 12:53:59;;;;;;;8.60;4.70;;;;;;;;;;5029360;28;20466;-70
2021/12/26 12:56:33;;;;;;;9.98;4.38;;;;;;;;;;5029908;28;20061;-70
2021/12/26 12:59:20;;;;;;;14.02;4.80;;;;;;;;;;5031659;28;20117;-69
2021/12/26 13:01:53;;;;;;;13.45;4.90;;;;;;;;;;5016074;28;20117;-69
2021/12/26 13:04:21;;;;;;;7.53;4.32;;;;;;;;;;5030326;28;20033;-69
2021/12/26 13:06:50;;;;;;;10.57;5.68;;;;;;;;;;5029055;28;20029;-69
2021/12/26 13:09:16;;;;;;;7.32;4.25;;;;;;;;;;5023223;28;20029;-68
2021/12/26 13:11:42;;;;;;;13.13;5.45;;;;;;;;;;5031107;28;20035;-69
2021/12/26 13:14:08;;;;;;;11.02;5.35;;;;;;;;;;5030961;28;20391;-69
2021/12/26 13:16:34;;;;;;;11.07;4.20;;;;;;;;;;5030824;28;20104;-68
2021/12/26 13:19:04;;;;;;;11.73;4.53;;;;;;;;;;5027154;28;20030;-68
2021/12/26 13:21:30;;;;;;;11.88;5.40;;;;;;;;;;5024300;28;20033;-68
2021/12/26 13:23:56;;;;;;;11.48;5.07;;;;;;;;;;5022213;28;20056;-68
2021/12/26 13:26:22;;;;;;;11.93;6.22;;;;;;;;;;5033688;28;20022;-68
2021/12/26 13:28:50;;;;;;;10.07;4.70;;;;;;;;;;5038700;28;20032;-69
2021/12/26 13:31:17;;;;;;;8.20;4.35;;;;;;;;;;5030912;28;20447;-68
2021/12/26 13:33:45;;;;;;;9.40;4.15;;;;;;;;;;5030061;28;20434;-68
2021/12/26 13:36:19;;;;;;;9.13;5.05;;;;;;;;;;5031079;28;20372;-69
2021/12/26 13:38:46;;;;;;;10.48;4.88;;;;;;;;;;5031137;28;20021;-70
2021/12/26 13:41:14;;;;;;;13.43;5.68;;;;;;;;;;5028559;28;20148;-69
2021/12/26 13:43:42;;;;;;;12.65;5.20;;;;;;;;;;5032457;28;20040;-68
2021/12/26 13:46:08;;;;;;;13.63;5.80;;;;;;;;;;5028605;28;20013;-69
2021/12/26 13:48:36;;;;;;;18.15;6.15;;;;;;;;;;5029384;28;20029;-69
2021/12/26 13:51:21;;;;;;;12.35;5.72;;;;;;;;;;5040402;28;20021;-69
2021/12/26 13:53:48;;;;;;;14.38;5.93;;;;;;;;;;5033875;28;20021;-69
2021/12/26 13:56:14;;;;;;;10.38;4.97;;;;;;;;;;5031377;28;20063;-69
2021/12/26 13:58:41;;;;;;;10.82;5.25;;;;;;;;;;5038060;28;20060;-69
2021/12/26 14:01:07;;;;;;;13.43;4.95;;;;;;;;;;5037423;28;20039;-69
2021/12/26 14:03:33;;;;;;;10.25;5.18;;;;;;;;;;5036277;28;20037;-69
2021/12/26 14:05:59;;;;;;;10.25;5.35;;;;;;;;;;5043392;28;20029;-69
2021/12/26 14:08:27;;;;;;;10.85;5.03;;;;;;;;;;5043016;28;20025;-68
2021/12/26 14:11:04;;;;;;;9.65;5.35;;;;;;;;;;5044245;28;20033;-68
2021/12/26 14:13:30;;;;;;;12.48;5.18;;;;;;;;;;5032539;28;20032;-68
2021/12/26 14:15:57;;;;;;;12.40;5.03;;;;;;;;;;5033714;28;20495;-69
2021/12/26 14:18:25;;;;;;;11.05;5.50;;;;;;;;;;5033021;28;20025;-68
2021/12/26 14:20:56;;;;;;;12.43;5.05;;;;;;;;;;5019059;28;20083;-68
2021/12/26 14:23:22;;;;;;;10.70;4.70;;;;;;;;;;5032120;28;20029;-67
2021/12/26 14:25:49;;;;;;;13.15;5.30;;;;;;;;;;5036402;28;20368;-74
2021/12/26 14:28:16;;;;;;;10.18;5.45;;;;;;;;;;5047880;28;20025;-68
2021/12/26 14:30:44;;;;;;;12.30;5.05;;;;;;;;;;5054068;28;20471;-67
2021/12/26 14:33:11;;;;;;;10.13;5.13;;;;;;;;;;5052047;28;20048;-68
2021/12/26 14:35:37;;;;;;;10.20;4.88;;;;;;;;;;5054105;28;20445;-68
2021/12/26 14:38:07;;;;;;;11.80;5.40;;;;;;;;;;5053854;28;20105;-68
2021/12/26 14:40:33;;;;;;;9.80;4.57;;;;;;;;;;5053900;28;20095;-68